createdAt,value
2023-04-15T00:00:23.671Z,121.11
2023-04-15T00:01:23.670Z,119.90
2023-04-15T00:02:23.829Z,120.76
2023-04-15T00:03:24.777Z,121.11
2023-04-15T00:04:23.641Z,120.50
2023-04-15T00:05:23.581Z,120.33
2023-04-15T00:06:23.568Z,120.42
2023-04-15T00:07:23.548Z,119.99
2023-04-15T00:08:24.506Z,120.42
2023-04-15T00:09:23.540Z,120.94
2023-04-15T00:10:23.542Z,120.59
2023-04-15T00:11:23.494Z,121.11
2023-04-15T00:12:23.520Z,119.99
2023-04-15T00:13:24.448Z,120.59
2023-04-15T00:14:23.469Z,120.50
2023-04-15T00:15:23.507Z,120.42
2023-04-15T00:16:23.530Z,120.07
2023-04-15T00:17:23.500Z,120.07
2023-04-15T00:18:23.432Z,120.07
2023-04-15T00:19:24.383Z,119.81
2023-04-15T00:20:23.404Z,119.90
2023-04-15T00:21:23.404Z,119.73
2023-04-15T00:22:23.376Z,120.07
2023-04-15T00:23:23.376Z,120.68
2023-04-15T00:24:24.308Z,119.90
2023-04-15T00:25:23.334Z,119.64
2023-04-15T00:26:23.320Z,119.90
2023-04-15T00:27:23.322Z,120.24
2023-04-15T00:28:23.300Z,119.81
2023-04-15T00:29:23.295Z,119.90
2023-04-15T00:30:24.222Z,119.39
2023-04-15T00:31:23.486Z,119.39
2023-04-15T00:32:23.354Z,119.13
2023-04-15T00:33:23.238Z,119.64
2023-04-15T00:34:23.262Z,119.90
2023-04-15T00:35:23.198Z,119.30
2023-04-15T00:36:24.149Z,119.56
2023-04-15T00:37:23.177Z,119.56
2023-04-15T00:38:23.185Z,119.47
2023-04-15T00:39:23.193Z,119.73
2023-04-15T00:40:23.174Z,119.13
2023-04-15T00:41:23.173Z,118.79
2023-04-15T00:42:24.068Z,119.39
2023-04-15T00:43:23.128Z,119.30
2023-04-15T00:44:23.126Z,119.64
2023-04-15T00:45:23.100Z,119.64
2023-04-15T00:46:23.101Z,119.13
2023-04-15T00:47:24.062Z,119.47
2023-04-15T00:48:23.046Z,119.90
2023-04-15T00:49:23.031Z,119.47
2023-04-15T00:50:23.147Z,119.39
2023-04-15T00:51:23.018Z,119.73
2023-04-15T00:52:22.991Z,119.73
2023-04-15T00:53:23.923Z,119.99
2023-04-15T00:54:22.966Z,119.39
2023-04-15T00:55:23.101Z,119.81
2023-04-15T00:56:22.979Z,119.56
2023-04-15T00:57:22.916Z,120.07
2023-04-15T00:58:22.907Z,119.73
2023-04-15T00:59:23.834Z,119.47
2023-04-15T01:00:22.893Z,119.81
2023-04-15T01:01:22.939Z,119.22
2023-04-15T01:02:22.978Z,119.30
2023-04-15T01:03:23.110Z,119.30
2023-04-15T01:04:23.825Z,119.56
2023-04-15T01:05:22.834Z,119.30
2023-04-15T01:06:22.825Z,119.39
2023-04-15T01:07:22.828Z,119.13
2023-04-15T01:08:22.770Z,119.13
2023-04-15T01:09:22.772Z,120.07
2023-04-15T01:10:23.674Z,119.30
2023-04-15T01:11:22.757Z,119.39
2023-04-15T01:12:22.736Z,119.39
2023-04-15T01:13:22.707Z,119.30
2023-04-15T01:14:22.695Z,119.90
2023-04-15T01:15:23.644Z,119.39
2023-04-15T01:16:22.793Z,118.88
2023-04-15T01:17:22.732Z,119.39
2023-04-15T01:18:22.663Z,118.63
2023-04-15T01:19:22.650Z,119.47
2023-04-15T01:20:23.552Z,119.39
2023-04-15T01:21:22.647Z,119.56
2023-04-15T01:22:22.606Z,118.79
2023-04-15T01:23:22.587Z,119.39
2023-04-15T01:24:22.563Z,118.96
2023-04-15T01:25:22.573Z,119.47
2023-04-15T01:26:23.477Z,119.13
2023-04-15T01:27:22.548Z,119.30
2023-04-15T01:28:22.558Z,119.13
2023-04-15T01:29:22.525Z,119.90
2023-04-15T01:30:22.511Z,118.88
2023-04-15T01:31:23.451Z,118.96
2023-04-15T01:32:22.516Z,118.96
2023-04-15T01:33:22.522Z,119.05
2023-04-15T01:34:22.488Z,119.13
2023-04-15T01:35:22.426Z,119.22
2023-04-15T01:36:23.379Z,118.88
2023-04-15T01:37:22.408Z,119.30
2023-04-15T01:38:22.412Z,118.96
2023-04-15T01:39:22.390Z,118.88
2023-04-15T01:40:22.384Z,119.22
2023-04-15T01:41:23.321Z,118.88
2023-04-15T01:42:22.373Z,118.88
2023-04-15T01:43:22.369Z,118.71
2023-04-15T01:44:22.320Z,118.96
2023-04-15T01:45:22.304Z,118.71
2023-04-15T01:46:22.337Z,119.05
2023-04-15T01:47:23.257Z,118.88
2023-04-15T01:48:22.279Z,119.05
2023-04-15T01:49:22.276Z,118.96
2023-04-15T01:50:22.256Z,118.63
2023-04-15T01:51:22.252Z,119.39
2023-04-15T01:52:23.195Z,118.88
2023-04-15T01:53:22.216Z,119.05
2023-04-15T01:54:22.189Z,118.71
2023-04-15T01:55:22.178Z,119.56
2023-04-15T01:56:22.184Z,119.64
2023-04-15T01:57:22.184Z,119.30
2023-04-15T01:58:23.098Z,118.63
2023-04-15T01:59:22.158Z,119.13
2023-04-15T02:00:22.148Z,118.71
2023-04-15T02:01:22.203Z,118.88
2023-04-15T02:02:22.166Z,119.90
2023-04-15T02:03:22.214Z,118.79
2023-04-15T02:04:23.031Z,118.54
2023-04-15T02:05:22.075Z,119.22
2023-04-15T02:06:22.046Z,118.88
2023-04-15T02:07:22.058Z,118.63
2023-04-15T02:08:22.054Z,119.22
2023-04-15T02:09:22.025Z,118.88
2023-04-15T02:10:22.936Z,118.88
2023-04-15T02:11:21.989Z,118.54
2023-04-15T02:12:21.994Z,118.88
2023-04-15T02:13:21.955Z,119.22
2023-04-15T02:14:21.948Z,118.37
2023-04-15T02:15:21.943Z,118.63
2023-04-15T02:16:22.886Z,118.88
2023-04-15T02:17:21.986Z,118.37
2023-04-15T02:18:21.913Z,118.29
2023-04-15T02:19:21.886Z,117.87
2023-04-15T02:20:21.880Z,118.37
2023-04-15T02:21:21.887Z,119.73
2023-04-15T02:22:22.788Z,118.96
2023-04-15T02:23:21.859Z,118.21
2023-04-15T02:24:21.838Z,118.54
2023-04-15T02:25:21.842Z,118.88
2023-04-15T02:26:21.795Z,118.46
2023-04-15T02:27:21.785Z,119.56
2023-04-15T02:28:22.710Z,118.29
2023-04-15T02:29:21.753Z,117.96
2023-04-15T02:30:21.743Z,118.04
2023-04-15T02:31:21.803Z,118.37
2023-04-15T02:32:21.761Z,118.21
2023-04-15T02:33:21.789Z,118.21
2023-04-15T02:34:22.628Z,119.56
2023-04-15T02:35:21.659Z,117.71
2023-04-15T02:36:21.682Z,118.54
2023-04-15T02:37:21.655Z,118.29
2023-04-15T02:38:21.692Z,118.21
2023-04-15T02:39:21.624Z,117.79
2023-04-15T02:40:22.555Z,118.04
2023-04-15T02:41:21.603Z,118.12
2023-04-15T02:42:21.626Z,118.21
2023-04-15T02:43:21.611Z,118.29
2023-04-15T02:44:21.573Z,118.37
2023-04-15T02:45:21.558Z,118.46
2023-04-15T02:46:22.516Z,118.88
2023-04-15T02:47:21.537Z,118.71
2023-04-15T02:48:21.526Z,118.21
2023-04-15T02:49:21.529Z,118.29
2023-04-15T02:50:21.492Z,118.46
2023-04-15T02:51:21.490Z,118.54
2023-04-15T02:52:22.396Z,119.05
2023-04-15T02:53:21.464Z,118.37
2023-04-15T02:54:21.440Z,118.63
2023-04-15T02:55:21.432Z,118.46
2023-04-15T02:56:21.412Z,118.88
2023-04-15T02:57:22.366Z,119.56
2023-04-15T02:58:21.392Z,118.37
2023-04-15T02:59:21.382Z,118.71
2023-04-15T03:00:21.370Z,118.63
2023-04-15T03:01:21.376Z,118.21
2023-04-15T03:02:21.433Z,118.96
2023-04-15T03:03:22.366Z,118.71
2023-04-15T03:04:21.347Z,118.54
2023-04-15T03:05:21.319Z,118.71
2023-04-15T03:06:21.293Z,118.88
2023-04-15T03:07:21.255Z,118.37
2023-04-15T03:08:21.250Z,118.46
2023-04-15T03:09:22.186Z,118.96
2023-04-15T03:10:21.238Z,118.46
2023-04-15T03:11:21.229Z,118.63
2023-04-15T03:12:21.235Z,118.71
2023-04-15T03:13:21.187Z,118.37
2023-04-15T03:14:21.223Z,118.21
2023-04-15T03:15:22.109Z,119.56
2023-04-15T03:16:21.184Z,118.79
2023-04-15T03:17:21.190Z,118.46
2023-04-15T03:18:21.155Z,119.05
2023-04-15T03:19:21.124Z,118.71
2023-04-15T03:20:21.140Z,118.46
2023-04-15T03:21:22.046Z,118.21
2023-04-15T03:22:21.083Z,118.54
2023-04-15T03:23:21.065Z,118.29
2023-04-15T03:24:21.147Z,118.46
2023-04-15T03:25:21.098Z,118.04
2023-04-15T03:26:21.944Z,118.54
2023-04-15T03:27:21.015Z,118.88
2023-04-15T03:28:21.022Z,118.12
2023-04-15T03:29:20.980Z,118.12
2023-04-15T03:30:20.991Z,118.37
2023-04-15T03:31:21.888Z,118.21
2023-04-15T03:32:20.996Z,118.71
2023-04-15T03:33:20.961Z,118.21
2023-04-15T03:34:20.940Z,118.54
2023-04-15T03:35:20.943Z,118.21
2023-04-15T03:36:20.938Z,118.21
2023-04-15T03:37:21.805Z,117.63
2023-04-15T03:38:20.883Z,117.54
2023-04-15T03:39:20.858Z,118.04
2023-04-15T03:40:20.878Z,117.79
2023-04-15T03:41:20.887Z,118.04
2023-04-15T03:42:20.818Z,117.46
2023-04-15T03:43:21.748Z,117.79
2023-04-15T03:44:20.793Z,117.79
2023-04-15T03:45:20.788Z,117.87
2023-04-15T03:46:20.832Z,117.54
2023-04-15T03:47:20.800Z,117.46
2023-04-15T03:48:21.727Z,118.04
2023-04-15T03:49:20.724Z,117.96
2023-04-15T03:50:20.723Z,117.63
2023-04-15T03:51:20.740Z,117.30
2023-04-15T03:52:20.710Z,117.30
2023-04-15T03:53:20.662Z,117.21
2023-04-15T03:54:21.616Z,117.46
2023-04-15T03:55:20.668Z,117.38
2023-04-15T03:56:20.650Z,116.72
2023-04-15T03:57:20.631Z,117.21
2023-04-15T03:58:20.621Z,117.54
2023-04-15T03:59:21.552Z,117.30
2023-04-15T04:00:20.605Z,117.21
2023-04-15T04:01:20.635Z,117.21
2023-04-15T04:02:20.654Z,116.48
2023-04-15T04:03:20.646Z,117.38
2023-04-15T04:04:20.656Z,116.89
2023-04-15T04:05:21.469Z,117.54
2023-04-15T04:06:20.489Z,117.21
2023-04-15T04:07:20.514Z,117.71
2023-04-15T04:08:20.501Z,116.97
2023-04-15T04:09:20.476Z,117.71
2023-04-15T04:10:20.474Z,117.63
2023-04-15T04:11:21.375Z,117.05
2023-04-15T04:12:20.439Z,117.71
2023-04-15T04:13:20.457Z,116.97
2023-04-15T04:14:20.427Z,117.05
2023-04-15T04:15:20.403Z,117.38
2023-04-15T04:16:21.450Z,116.97
2023-04-15T04:17:20.376Z,117.38
2023-04-15T04:18:20.354Z,117.38
2023-04-15T04:19:20.348Z,116.97
2023-04-15T04:20:20.349Z,116.72
2023-04-15T04:21:21.278Z,117.21
2023-04-15T04:22:20.340Z,117.21
2023-04-15T04:23:20.308Z,117.30
2023-04-15T04:24:20.313Z,116.08
2023-04-15T04:25:20.278Z,116.72
2023-04-15T04:26:20.273Z,116.32
2023-04-15T04:27:21.179Z,116.00
2023-04-15T04:28:20.236Z,116.40
2023-04-15T04:29:20.242Z,117.05
2023-04-15T04:30:20.233Z,116.72
2023-04-15T04:31:20.273Z,116.40
2023-04-15T04:32:21.158Z,116.89
2023-04-15T04:33:20.197Z,116.72
2023-04-15T04:34:20.161Z,115.92
2023-04-15T04:35:20.152Z,116.89
2023-04-15T04:36:20.118Z,116.72
2023-04-15T04:37:20.149Z,115.84
2023-04-15T04:38:21.023Z,116.56
2023-04-15T04:39:20.086Z,116.48
2023-04-15T04:40:20.067Z,115.92
2023-04-15T04:41:20.061Z,116.00
2023-04-15T04:42:20.061Z,115.68
2023-04-15T04:43:20.973Z,116.40
2023-04-15T04:44:20.038Z,115.44
2023-04-15T04:45:20.033Z,116.08
2023-04-15T04:46:20.031Z,115.60
2023-04-15T04:47:19.997Z,116.24
2023-04-15T04:48:20.905Z,116.08
2023-04-15T04:49:19.957Z,115.52
2023-04-15T04:50:19.960Z,116.24
2023-04-15T04:51:19.937Z,115.52
2023-04-15T04:52:19.934Z,116.00
2023-04-15T04:53:20.873Z,115.44
2023-04-15T04:54:19.906Z,116.08
2023-04-15T04:55:19.873Z,115.92
2023-04-15T04:56:19.873Z,116.00
2023-04-15T04:57:19.845Z,115.84
2023-04-15T04:58:19.849Z,116.16
2023-04-15T04:59:20.768Z,115.76
2023-04-15T05:00:19.805Z,115.76
2023-04-15T05:01:19.835Z,115.60
2023-04-15T05:02:19.945Z,116.72
2023-04-15T05:03:20.011Z,114.96
2023-04-15T05:04:20.676Z,115.20
2023-04-15T05:05:19.782Z,115.68
2023-04-15T05:06:19.782Z,114.96
2023-04-15T05:07:19.736Z,115.12
2023-04-15T05:08:19.744Z,115.44
2023-04-15T05:09:19.724Z,114.65
2023-04-15T05:10:20.603Z,114.96
2023-04-15T05:11:19.690Z,115.12
2023-04-15T05:12:19.719Z,115.28
2023-04-15T05:13:19.665Z,114.96
2023-04-15T05:14:20.509Z,114.96
2023-04-15T05:15:19.618Z,114.26
2023-04-15T05:16:20.639Z,114.80
2023-04-15T05:17:19.624Z,113.64
2023-04-15T05:18:19.588Z,114.88
2023-04-15T05:19:19.593Z,114.41
2023-04-15T05:20:19.576Z,113.64
2023-04-15T05:21:19.603Z,113.94
2023-04-15T05:22:20.517Z,113.40
2023-04-15T05:23:19.528Z,114.26
2023-04-15T05:24:19.500Z,113.79
2023-04-15T05:25:19.533Z,113.18
2023-04-15T05:26:19.496Z,113.87
2023-04-15T05:27:20.406Z,114.18
2023-04-15T05:28:19.474Z,114.18
2023-04-15T05:29:19.460Z,113.71
2023-04-15T05:30:19.443Z,113.40
2023-04-15T05:31:19.529Z,113.40
2023-04-15T05:32:19.451Z,113.40
2023-04-15T05:33:20.358Z,113.33
2023-04-15T05:34:19.412Z,113.02
2023-04-15T05:35:19.375Z,112.79
2023-04-15T05:36:19.407Z,113.33
2023-04-15T05:37:19.355Z,112.34
2023-04-15T05:38:20.260Z,112.72
2023-04-15T05:39:19.351Z,112.95
2023-04-15T05:40:19.350Z,112.79
2023-04-15T05:41:19.958Z,112.64
2023-04-15T05:42:19.277Z,112.57
2023-04-15T05:43:19.278Z,112.26
2023-04-15T05:44:20.205Z,112.57
2023-04-15T05:45:19.270Z,112.11
2023-04-15T05:46:19.248Z,111.96
2023-04-15T05:47:19.249Z,111.89
2023-04-15T05:48:19.226Z,111.74
2023-04-15T05:49:19.214Z,111.52
2023-04-15T05:50:20.122Z,111.59
2023-04-15T05:51:19.175Z,112.19
2023-04-15T05:52:19.175Z,110.85
2023-04-15T05:53:19.154Z,111.22
2023-04-15T05:54:20.302Z,110.93
2023-04-15T05:55:20.280Z,110.56
2023-04-15T05:56:19.156Z,111.29
2023-04-15T05:57:19.150Z,111.22
2023-04-15T05:58:19.069Z,111.07
2023-04-15T05:59:19.068Z,110.71
2023-04-15T06:00:19.980Z,110.56
2023-04-15T06:01:19.052Z,110.49
2023-04-15T06:02:19.175Z,109.98
2023-04-15T06:03:19.073Z,110.12
2023-04-15T06:04:19.186Z,110.27
2023-04-15T06:05:19.046Z,110.49
2023-04-15T06:06:19.963Z,109.26
2023-04-15T06:07:18.953Z,109.33
2023-04-15T06:08:18.995Z,109.84
2023-04-15T06:09:18.979Z,109.12
2023-04-15T06:10:18.938Z,109.26
2023-04-15T06:11:18.958Z,109.40
2023-04-15T06:12:19.838Z,108.62
2023-04-15T06:13:18.908Z,108.41
2023-04-15T06:14:18.896Z,108.69
2023-04-15T06:15:18.893Z,108.62
2023-04-15T06:16:18.903Z,108.20
2023-04-15T06:17:18.899Z,108.41
2023-04-15T06:18:19.761Z,108.20
2023-04-15T06:19:19.144Z,107.86
2023-04-15T06:20:18.827Z,107.86
2023-04-15T06:21:18.791Z,107.51
2023-04-15T06:22:18.782Z,107.79
2023-04-15T06:23:18.773Z,107.51
2023-04-15T06:24:19.716Z,107.58
2023-04-15T06:25:18.756Z,107.58
2023-04-15T06:26:18.728Z,107.44
2023-04-15T06:27:18.720Z,107.86
2023-04-15T06:28:18.715Z,106.48
2023-04-15T06:29:19.647Z,106.82
2023-04-15T06:30:18.723Z,106.75
2023-04-15T06:31:18.716Z,106.82
2023-04-15T06:32:18.647Z,106.96
2023-04-15T06:33:18.650Z,106.35
2023-04-15T06:34:18.627Z,107.03
2023-04-15T06:35:19.554Z,106.62
2023-04-15T06:36:18.613Z,105.81
2023-04-15T06:37:18.608Z,106.28
2023-04-15T06:38:18.574Z,106.35
2023-04-15T06:39:18.554Z,106.08
2023-04-15T06:40:18.603Z,105.54
2023-04-15T06:41:19.493Z,105.94
2023-04-15T06:42:18.543Z,105.35
2023-04-15T06:43:18.543Z,104.95
2023-04-15T06:44:18.496Z,105.01
2023-04-15T06:45:18.490Z,105.15
2023-04-15T06:46:19.583Z,104.62
2023-04-15T06:47:18.499Z,104.62
2023-04-15T06:48:18.451Z,104.49
2023-04-15T06:49:18.457Z,104.17
2023-04-15T06:50:18.461Z,104.04
2023-04-15T06:51:19.350Z,104.30
2023-04-15T06:52:18.410Z,103.78
2023-04-15T06:53:18.413Z,103.91
2023-04-15T06:54:18.383Z,103.78
2023-04-15T06:55:18.355Z,102.63
2023-04-15T06:56:18.352Z,102.95
2023-04-15T06:57:19.295Z,102.89
2023-04-15T06:58:18.348Z,102.45
2023-04-15T06:59:18.323Z,103.33
2023-04-15T07:00:18.288Z,101.95
2023-04-15T07:01:18.353Z,103.08
2023-04-15T07:02:19.325Z,101.33
2023-04-15T07:03:18.301Z,103.08
2023-04-15T07:04:18.273Z,101.27
2023-04-15T07:05:18.238Z,102.20
2023-04-15T07:06:18.235Z,101.21
2023-04-15T07:07:19.149Z,101.45
2023-04-15T07:08:18.201Z,100.96
2023-04-15T07:09:18.192Z,101.15
2023-04-15T07:10:18.182Z,101.39
2023-04-15T07:11:18.144Z,100.54
2023-04-15T07:12:18.162Z,100.18
2023-04-15T07:13:19.074Z,100.12
2023-04-15T07:14:18.167Z,99.58
2023-04-15T07:15:18.114Z,99.52
2023-04-15T07:16:18.121Z,99.35
2023-04-15T07:17:18.110Z,99.35
2023-04-15T07:18:19.018Z,99.23
2023-04-15T07:19:18.061Z,98.70
2023-04-15T07:20:18.047Z,99.11
2023-04-15T07:21:18.049Z,98.76
2023-04-15T07:22:18.040Z,99.41
2023-04-15T07:23:18.013Z,98.59
2023-04-15T07:24:18.937Z,98.76
2023-04-15T07:25:18.364Z,98.07
2023-04-15T07:26:17.950Z,97.95
2023-04-15T07:27:17.980Z,98.64
2023-04-15T07:28:17.927Z,98.36
2023-04-15T07:29:18.868Z,97.61
2023-04-15T07:30:17.930Z,97.55
2023-04-15T07:31:17.974Z,97.33
2023-04-15T07:32:17.873Z,98.18
2023-04-15T07:33:17.898Z,98.18
2023-04-15T07:34:18.803Z,98.47
2023-04-15T07:35:17.848Z,98.36
2023-04-15T07:36:17.841Z,98.18
2023-04-15T07:37:17.817Z,98.12
2023-04-15T07:38:17.810Z,98.70
2023-04-15T07:39:18.703Z,97.10
2023-04-15T07:40:17.780Z,98.12
2023-04-15T07:41:17.783Z,98.82
2023-04-15T07:42:17.877Z,97.95
2023-04-15T07:43:17.731Z,98.07
2023-04-15T07:44:18.646Z,98.41
2023-04-15T07:45:17.774Z,97.55
2023-04-15T07:46:17.761Z,97.67
2023-04-15T07:47:17.762Z,99.17
2023-04-15T07:48:17.683Z,97.72
2023-04-15T07:49:17.692Z,97.33
2023-04-15T07:50:18.585Z,97.67
2023-04-15T07:51:17.674Z,97.50
2023-04-15T07:52:17.622Z,97.55
2023-04-15T07:53:17.614Z,97.78
2023-04-15T07:54:17.635Z,98.07
2023-04-15T07:55:18.517Z,97.78
2023-04-15T07:56:17.603Z,97.95
2023-04-15T07:57:17.581Z,98.30
2023-04-15T07:58:17.577Z,97.78
2023-04-15T07:59:17.547Z,98.24
2023-04-15T08:00:18.428Z,99.05
2023-04-15T08:01:17.516Z,99.23
2023-04-15T08:02:17.620Z,99.58
2023-04-15T08:03:17.559Z,99.17
2023-04-15T08:04:17.582Z,99.64
2023-04-15T08:05:17.509Z,99.29
2023-04-15T08:06:18.368Z,98.94
2023-04-15T08:07:17.416Z,99.41
2023-04-15T08:08:17.480Z,99.29
2023-04-15T08:09:17.408Z,99.76
2023-04-15T08:10:17.384Z,99.11
2023-04-15T08:11:17.379Z,99.35
2023-04-15T08:12:18.291Z,99.76
2023-04-15T08:13:17.380Z,99.41
2023-04-15T08:14:17.353Z,100.06
2023-04-15T08:15:17.376Z,100.12
2023-04-15T08:16:17.336Z,100.00
2023-04-15T08:17:17.325Z,99.88
2023-04-15T08:18:18.223Z,99.82
2023-04-15T08:19:17.280Z,100.00
2023-04-15T08:20:17.234Z,100.66
2023-04-15T08:21:17.237Z,100.24
2023-04-15T08:22:18.186Z,100.42
2023-04-15T08:23:17.261Z,100.90
2023-04-15T08:24:18.140Z,101.03
2023-04-15T08:25:17.183Z,100.42
2023-04-15T08:26:17.168Z,101.09
2023-04-15T08:27:17.188Z,100.90
2023-04-15T08:28:17.163Z,100.96
2023-04-15T08:29:18.117Z,101.15
2023-04-15T08:30:17.125Z,100.96
2023-04-15T08:31:17.122Z,101.58
2023-04-15T08:32:17.109Z,100.96
2023-04-15T08:33:17.073Z,101.33
2023-04-15T08:34:17.058Z,100.90
2023-04-15T08:35:18.000Z,101.03
2023-04-15T08:36:17.056Z,101.64
2023-04-15T08:37:17.030Z,101.33
2023-04-15T08:38:17.028Z,101.45
2023-04-15T08:39:17.021Z,101.21
2023-04-15T08:40:17.015Z,101.39
2023-04-15T08:41:17.918Z,101.21
2023-04-15T08:42:16.963Z,101.58
2023-04-15T08:43:16.961Z,101.39
2023-04-15T08:44:16.945Z,101.45
2023-04-15T08:45:16.915Z,101.33
2023-04-15T08:46:16.934Z,101.70
2023-04-15T08:47:17.832Z,101.39
2023-04-15T08:48:16.921Z,101.21
2023-04-15T08:49:16.951Z,101.21
2023-04-15T08:50:16.847Z,101.09
2023-04-15T08:51:16.867Z,101.03
2023-04-15T08:52:17.768Z,101.15
2023-04-15T08:53:16.849Z,101.64
2023-04-15T08:54:16.819Z,100.96
2023-04-15T08:55:16.815Z,100.72
2023-04-15T08:56:17.031Z,101.27
2023-04-15T08:57:16.798Z,101.21
2023-04-15T08:58:17.711Z,100.72
2023-04-15T08:59:16.740Z,101.33
2023-04-15T09:00:16.741Z,100.84
2023-04-15T09:01:16.751Z,101.70
2023-04-15T09:02:16.725Z,101.39
2023-04-15T09:03:16.789Z,100.66
2023-04-15T09:04:17.641Z,101.70
2023-04-15T09:05:16.682Z,100.84
2023-04-15T09:06:16.788Z,100.84
2023-04-15T09:07:16.667Z,101.21
2023-04-15T09:08:16.665Z,100.96
2023-04-15T09:09:16.630Z,101.39
2023-04-15T09:10:17.551Z,100.72
2023-04-15T09:11:17.400Z,101.45
2023-04-15T09:12:16.580Z,101.03
2023-04-15T09:13:16.611Z,101.21
2023-04-15T09:14:16.544Z,101.03
2023-04-15T09:15:16.543Z,101.64
2023-04-15T09:16:17.534Z,100.84
2023-04-15T09:17:16.508Z,100.84
2023-04-15T09:18:16.503Z,100.78
2023-04-15T09:19:16.476Z,101.45
2023-04-15T09:20:16.500Z,100.78
2023-04-15T09:21:16.504Z,101.09
2023-04-15T09:22:17.366Z,101.09
2023-04-15T09:23:16.442Z,101.09
2023-04-15T09:24:16.427Z,100.66
2023-04-15T09:25:16.408Z,101.27
2023-04-15T09:26:16.406Z,100.96
2023-04-15T09:27:17.446Z,100.48
2023-04-15T09:28:16.678Z,100.72
2023-04-15T09:29:16.377Z,100.84
2023-04-15T09:30:16.374Z,100.84
2023-04-15T09:31:16.393Z,100.96
2023-04-15T09:32:16.336Z,100.36
2023-04-15T09:33:17.284Z,100.42
2023-04-15T09:34:16.284Z,101.03
2023-04-15T09:35:16.271Z,100.42
2023-04-15T09:36:16.278Z,100.24
2023-04-15T09:37:31.294Z,100.42
2023-04-15T09:38:17.755Z,100.36
2023-04-15T09:39:17.151Z,100.24
2023-04-15T09:40:16.205Z,100.78
2023-04-15T09:41:16.301Z,101.03
2023-04-15T09:42:16.189Z,99.88
2023-04-15T09:43:16.166Z,100.48
2023-04-15T09:44:17.094Z,100.36
2023-04-15T09:45:16.172Z,100.36
2023-04-15T09:46:16.194Z,100.18
2023-04-15T09:47:16.130Z,100.66
2023-04-15T09:48:16.103Z,100.00
2023-04-15T09:49:17.044Z,99.94
2023-04-15T09:50:16.092Z,99.88
2023-04-15T09:51:16.097Z,98.94
2023-04-15T09:52:16.058Z,99.00
2023-04-15T09:53:16.021Z,99.64
2023-04-15T09:54:17.024Z,98.82
2023-04-15T09:55:16.287Z,99.11
2023-04-15T09:56:16.003Z,99.35
2023-04-15T09:57:16.214Z,99.29
2023-04-15T09:58:16.058Z,99.52
2023-04-15T09:59:16.013Z,99.29
2023-04-15T10:00:16.921Z,98.47
2023-04-15T10:01:15.942Z,99.17
2023-04-15T10:02:15.998Z,98.64
2023-04-15T10:03:16.069Z,99.23
2023-04-15T10:04:16.018Z,99.17
2023-04-15T10:05:15.888Z,99.05
2023-04-15T10:06:16.815Z,99.46
2023-04-15T10:07:15.891Z,99.41
2023-04-15T10:08:15.865Z,99.29
2023-04-15T10:09:15.852Z,98.59
2023-04-15T10:10:15.907Z,98.76
2023-04-15T10:11:15.838Z,99.05
2023-04-15T10:12:16.750Z,98.70
2023-04-15T10:13:15.826Z,98.59
2023-04-15T10:14:15.787Z,99.46
2023-04-15T10:15:15.759Z,99.05
2023-04-15T10:16:15.774Z,99.41
2023-04-15T10:17:15.735Z,99.41
2023-04-15T10:18:16.683Z,99.05
2023-04-15T10:19:15.738Z,99.17
2023-04-15T10:20:15.745Z,99.41
2023-04-15T10:21:15.694Z,99.88
2023-04-15T10:22:15.697Z,99.41
2023-04-15T10:23:15.681Z,99.82
2023-04-15T10:24:16.572Z,100.00
2023-04-15T10:25:15.665Z,100.18
2023-04-15T10:26:15.642Z,99.70
2023-04-15T10:27:15.635Z,100.12
2023-04-15T10:28:15.639Z,100.24
2023-04-15T10:29:15.588Z,99.94
2023-04-15T10:30:16.496Z,100.30
2023-04-15T10:31:15.617Z,100.06
2023-04-15T10:32:15.551Z,99.82
2023-04-15T10:33:15.556Z,100.24
2023-04-15T10:34:15.634Z,100.24
2023-04-15T10:35:15.529Z,100.42
2023-04-15T10:36:16.425Z,100.18
2023-04-15T10:37:15.526Z,100.12
2023-04-15T10:38:15.493Z,100.36
2023-04-15T10:39:15.567Z,99.94
2023-04-15T10:40:15.425Z,100.00
2023-04-15T10:41:17.067Z,99.82
2023-04-15T10:42:16.385Z,100.66
2023-04-15T10:43:15.409Z,99.94
2023-04-15T10:44:15.379Z,100.12
2023-04-15T10:45:15.393Z,100.24
2023-04-15T10:46:15.370Z,100.24
2023-04-15T10:47:15.364Z,100.00
2023-04-15T10:48:16.293Z,99.52
2023-04-15T10:49:15.360Z,100.00
2023-04-15T10:50:15.362Z,99.52
2023-04-15T10:51:15.336Z,100.06
2023-04-15T10:52:15.291Z,99.58
2023-04-15T10:53:16.212Z,99.58
2023-04-15T10:54:15.310Z,99.41
2023-04-15T10:55:15.246Z,99.17
2023-04-15T10:56:15.279Z,99.05
2023-04-15T10:57:15.237Z,99.35
2023-04-15T10:58:16.138Z,98.76
2023-04-15T10:59:15.197Z,98.70
2023-04-15T11:00:15.217Z,98.47
2023-04-15T11:01:15.177Z,99.88
2023-04-15T11:02:15.279Z,98.41
2023-04-15T11:03:15.237Z,98.70
2023-04-15T11:04:16.187Z,98.76
2023-04-15T11:05:15.151Z,99.35
2023-04-15T11:06:16.166Z,97.67
2023-04-15T11:07:15.122Z,98.76
2023-04-15T11:08:15.101Z,98.41
2023-04-15T11:09:16.003Z,98.18
2023-04-15T11:10:15.064Z,98.36
2023-04-15T11:11:15.051Z,99.29
2023-04-15T11:12:15.026Z,97.21
2023-04-15T11:13:15.034Z,97.50
2023-04-15T11:14:15.949Z,96.88
2023-04-15T11:15:15.034Z,98.18
2023-04-15T11:16:15.041Z,97.72
2023-04-15T11:17:14.986Z,97.38
2023-04-15T11:18:15.004Z,97.44
2023-04-15T11:19:15.905Z,97.78
2023-04-15T11:20:14.940Z,98.12
2023-04-15T11:21:15.169Z,97.44
2023-04-15T11:22:14.910Z,98.01
2023-04-15T11:23:15.730Z,98.53
2023-04-15T11:24:14.903Z,98.36
2023-04-15T11:25:15.791Z,98.47
2023-04-15T11:26:14.866Z,98.47
2023-04-15T11:27:14.869Z,98.01
2023-04-15T11:28:14.856Z,98.18
2023-04-15T11:29:14.831Z,99.00
2023-04-15T11:30:15.728Z,98.53
2023-04-15T11:31:14.819Z,98.82
2023-04-15T11:32:14.828Z,98.82
2023-04-15T11:33:14.787Z,98.59
2023-04-15T11:34:14.762Z,98.53
2023-04-15T11:35:15.678Z,98.53
2023-04-15T11:36:14.772Z,99.11
2023-04-15T11:37:14.712Z,98.59
2023-04-15T11:38:14.719Z,98.59
2023-04-15T11:39:14.699Z,98.70
2023-04-15T11:40:15.593Z,99.05
2023-04-15T11:41:14.660Z,99.35
2023-04-15T11:42:14.657Z,99.29
2023-04-15T11:43:14.647Z,98.94
2023-04-15T11:44:14.635Z,99.46
2023-04-15T11:45:15.536Z,98.94
2023-04-15T11:46:14.665Z,99.52
2023-04-15T11:47:14.592Z,99.05
2023-04-15T11:48:14.619Z,99.41
2023-04-15T11:49:14.563Z,99.70
2023-04-15T11:50:14.544Z,99.58
2023-04-15T11:51:15.491Z,99.17
2023-04-15T11:52:14.495Z,99.29
2023-04-15T11:53:14.493Z,99.70
2023-04-15T11:54:14.498Z,99.46
2023-04-15T11:55:14.513Z,99.17
2023-04-15T11:57:12.897Z,158.77
2023-04-15T11:58:14.430Z,135.85
2023-04-15T11:59:12.854Z,124.44
2023-04-15T12:00:12.801Z,118.54
2023-04-15T12:01:12.892Z,113.79
2023-04-15T12:02:13.869Z,110.71
2023-04-15T12:03:12.938Z,107.86
2023-04-15T12:04:13.027Z,105.81
2023-04-15T12:05:12.800Z,105.15
2023-04-15T12:06:12.762Z,103.84
2023-04-15T12:07:13.727Z,103.59
2023-04-15T12:08:12.788Z,102.45
2023-04-15T12:09:12.756Z,102.01
2023-04-15T12:10:12.723Z,102.07
2023-04-15T12:11:12.767Z,101.27
2023-04-15T12:12:12.702Z,101.76
2023-04-15T12:13:13.684Z,100.54
2023-04-15T12:14:12.692Z,101.15
2023-04-15T12:15:12.730Z,100.96
2023-04-15T12:16:12.676Z,100.00
2023-04-15T12:17:12.680Z,100.30
2023-04-15T12:18:13.566Z,100.30
2023-04-15T12:19:12.612Z,100.12
2023-04-15T12:20:12.623Z,99.82
2023-04-15T12:21:12.562Z,99.41
2023-04-15T12:22:12.581Z,99.05
2023-04-15T12:23:12.578Z,99.41
2023-04-15T12:24:13.502Z,99.41
2023-04-15T12:25:12.524Z,99.17
2023-04-15T12:26:12.549Z,98.59
2023-04-15T12:27:12.497Z,99.35
2023-04-15T12:28:12.531Z,98.70
2023-04-15T12:29:12.472Z,99.05
2023-04-15T12:30:13.396Z,98.94
2023-04-15T12:31:12.457Z,99.05
2023-04-15T12:32:12.509Z,98.82
2023-04-15T12:33:12.417Z,98.64
2023-04-15T12:34:12.552Z,98.64
2023-04-15T12:35:12.431Z,98.24